createdAt,value
2023-03-26T00:03:17.845Z,92.50
2023-03-26T00:08:20.004Z,90.10
2023-03-26T00:13:22.165Z,98.15
2023-03-26T00:18:42.958Z,90.00
2023-03-26T00:23:45.752Z,95.40
2023-03-26T00:28:51.164Z,95.15
2023-03-26T00:33:56.709Z,81.80
2023-03-26T00:38:58.950Z,78.97
2023-03-26T00:44:01.251Z,75.22
2023-03-26T00:49:04.274Z,72.63
2023-03-26T00:54:08.016Z,71.00
2023-03-26T00:59:10.202Z,63.85
2023-03-26T01:04:21.310Z,56.72
2023-03-26T01:09:26.310Z,50.63
2023-03-26T01:14:31.905Z,55.80
2023-03-26T01:19:54.357Z,55.42
2023-03-26T01:24:57.119Z,59.88
2023-03-26T01:30:11.504Z,56.13
2023-03-26T01:35:22.065Z,54.05
2023-03-26T01:40:27.398Z,55.05
2023-03-26T01:45:32.109Z,76.93
2023-03-26T01:50:34.288Z,94.25
2023-03-26T01:55:43.772Z,85.65
2023-03-26T02:01:06.676Z,83.07
2023-03-26T02:06:10.130Z,133.27
2023-03-26T02:11:16.585Z,129.38
2023-03-26T02:16:20.042Z,126.47
2023-03-26T02:21:26.390Z,135.05
2023-03-26T02:26:29.580Z,140.93
2023-03-26T02:31:50.160Z,147.70
2023-03-26T02:36:52.487Z,145.48
2023-03-26T02:41:55.518Z,156.40
2023-03-26T02:46:57.871Z,160.68
2023-03-26T02:52:18.927Z,155.85
2023-03-26T02:57:24.459Z,143.90
2023-03-26T03:02:44.575Z,144.27
2023-03-26T03:08:06.808Z,136.65
2023-03-26T03:13:11.599Z,143.60
2023-03-26T03:18:13.883Z,138.18
2023-03-26T03:23:16.428Z,114.25
2023-03-26T03:28:19.649Z,121.07
2023-03-26T03:33:22.075Z,98.13
2023-03-26T03:38:24.592Z,86.47
2023-03-26T03:43:29.281Z,90.32
2023-03-26T03:48:51.701Z,93.07
2023-03-26T03:54:01.733Z,103.25
2023-03-26T03:59:26.396Z,117.22
2023-03-26T04:04:28.793Z,108.32
2023-03-26T04:09:36.179Z,87.20
2023-03-26T04:14:47.167Z,97.93
2023-03-26T04:19:55.120Z,89.82
2023-03-26T04:25:02.814Z,85.68
2023-03-26T04:30:27.629Z,77.55
2023-03-26T04:35:41.949Z,94.40
2023-03-26T04:40:50.160Z,85.00
2023-03-26T04:46:18.917Z,78.25
2023-03-26T04:51:38.496Z,90.60
2023-03-26T04:57:04.444Z,78.32
2023-03-26T05:02:26.869Z,79.05
2023-03-26T05:07:30.721Z,82.10
2023-03-26T05:12:36.045Z,77.38
2023-03-26T05:22:52.374Z,75.95
2023-03-26T05:27:59.886Z,67.35
2023-03-26T05:33:09.378Z,63.60
2023-03-26T05:38:19.217Z,72.80
2023-03-26T05:43:22.793Z,68.97
2023-03-26T05:48:47.040Z,70.05
2023-03-26T05:53:49.633Z,64.43
2023-03-26T05:58:57.778Z,74.88
2023-03-26T06:04:18.404Z,67.50
2023-03-26T06:09:38.870Z,73.00
2023-03-26T06:14:43.105Z,74.82
2023-03-26T06:25:12.005Z,70.85
2023-03-26T06:30:26.673Z,72.05
2023-03-26T06:35:36.947Z,63.92
2023-03-26T06:40:39.258Z,62.22
2023-03-26T06:46:01.634Z,68.47
2023-03-26T06:51:22.385Z,73.20
2023-03-26T06:56:43.299Z,66.32
2023-03-26T07:02:11.285Z,58.28
2023-03-26T07:07:32.831Z,60.80
2023-03-26T07:13:07.430Z,54.35
2023-03-26T07:18:24.924Z,74.20
2023-03-26T07:23:28.317Z,78.20
2023-03-26T07:29:05.262Z,82.97
2023-03-26T07:34:22.691Z,79.10
2023-03-26T07:40:13.353Z,69.07
2023-03-26T07:45:39.975Z,66.65
2023-03-26T07:51:01.061Z,52.42
2023-03-26T07:56:29.339Z,13.93
2023-03-26T08:01:40.251Z,12.10
2023-03-26T08:06:49.758Z,12.88
2023-03-26T08:12:30.432Z,12.95
2023-03-26T08:17:38.272Z,12.48
2023-03-26T08:22:46.000Z,13.00
2023-03-26T08:27:54.611Z,11.75
2023-03-26T08:33:02.637Z,14.90
2023-03-26T08:38:04.949Z,13.15
2023-03-26T08:43:07.148Z,13.10
2023-03-26T08:48:18.624Z,13.70
2023-03-26T08:53:20.774Z,13.00
2023-03-26T08:58:42.380Z,10.27
2023-03-26T09:03:50.913Z,11.90
2023-03-26T09:09:00.070Z,10.80
2023-03-26T09:14:34.509Z,11.85
2023-03-26T09:19:55.172Z,8.25
2023-03-26T09:25:03.368Z,10.73
2023-03-26T09:30:23.751Z,9.98
2023-03-26T09:40:42.737Z,11.38
2023-03-26T09:45:55.731Z,10.77
2023-03-26T09:51:07.184Z,12.60
2023-03-26T09:56:09.567Z,8.82
2023-03-26T10:01:12.791Z,11.40
2023-03-26T10:06:21.574Z,11.32
2023-03-26T10:11:42.446Z,11.05
2023-03-26T10:17:05.233Z,12.15
2023-03-26T10:22:09.576Z,12.82
2023-03-26T10:27:17.810Z,9.82
2023-03-26T10:32:29.278Z,11.63
2023-03-26T10:37:34.285Z,8.88
2023-03-26T10:42:40.981Z,13.18
2023-03-26T10:48:02.216Z,13.43
2023-03-26T10:53:12.932Z,9.90
2023-03-26T10:58:15.358Z,11.43
2023-03-26T11:03:18.519Z,11.68
2023-03-26T11:08:31.762Z,11.80
2023-03-26T11:13:41.296Z,10.05
2023-03-26T11:18:53.636Z,12.32
2023-03-26T11:24:05.244Z,14.88
2023-03-26T11:29:32.639Z,12.35
2023-03-26T11:34:39.103Z,14.68
2023-03-26T11:39:49.043Z,11.63
2023-03-26T11:45:05.485Z,12.73
2023-03-26T11:50:15.871Z,10.35
2023-03-26T11:55:18.255Z,7.47
2023-03-26T12:00:23.243Z,14.98
2023-03-26T12:05:27.642Z,15.05
2023-03-26T12:10:38.291Z,10.75
2023-03-26T12:15:43.835Z,14.77
2023-03-26T12:20:46.034Z,10.70
2023-03-26T12:26:04.447Z,8.57
2023-03-26T12:31:08.087Z,8.95
2023-03-26T12:36:19.568Z,9.70
2023-03-26T12:43:40.204Z,7.88
2023-03-26T12:47:59.033Z,9.05
2023-03-26T12:52:38.449Z,9.32
2023-03-26T12:57:46.988Z,7.88
2023-03-26T13:02:55.219Z,7.72
2023-03-26T13:08:15.943Z,8.57
2023-03-26T13:13:28.987Z,7.72
2023-03-26T13:18:37.874Z,8.05
2023-03-26T13:23:44.261Z,12.50
2023-03-26T13:28:54.120Z,11.40
2023-03-26T13:34:19.744Z,11.85
2023-03-26T13:39:34.298Z,10.02
2023-03-26T13:44:36.432Z,10.90
2023-03-26T13:49:41.984Z,10.88
2023-03-26T13:54:56.401Z,15.88
2023-03-26T14:00:26.942Z,11.85
2023-03-26T14:05:45.095Z,9.18
2023-03-26T14:10:54.848Z,11.50
2023-03-26T14:16:04.389Z,13.93
2023-03-26T14:21:12.426Z,22.20
2023-03-26T14:26:23.642Z,21.88
2023-03-26T14:31:44.623Z,15.15
2023-03-26T14:36:53.133Z,11.35
2023-03-26T14:42:07.685Z,19.08
2023-03-26T14:47:14.848Z,19.00
2023-03-26T14:52:21.752Z,18.58
2023-03-26T15:02:45.070Z,21.40
2023-03-26T15:08:05.512Z,22.33
2023-03-26T15:13:10.689Z,18.20
2023-03-26T15:18:31.281Z,19.25
2023-03-26T15:23:49.912Z,18.35
2023-03-26T15:29:12.946Z,19.50
2023-03-26T15:34:34.329Z,17.58
2023-03-26T15:39:58.937Z,18.67
2023-03-26T15:45:05.835Z,14.88
2023-03-26T15:50:08.412Z,20.70
2023-03-26T15:55:16.839Z,17.40
2023-03-26T16:00:29.480Z,15.43
2023-03-26T16:05:45.952Z,15.65
2023-03-26T16:10:57.600Z,17.40
2023-03-26T16:16:02.753Z,14.07
2023-03-26T16:21:31.410Z,17.88
2023-03-26T16:26:47.282Z,16.08
2023-03-26T16:32:09.262Z,12.98
2023-03-26T16:37:26.868Z,15.27
2023-03-26T16:42:38.740Z,13.68
2023-03-26T16:48:04.117Z,14.35
2023-03-26T16:53:18.148Z,9.68
2023-03-26T16:58:29.787Z,15.25
2023-03-26T17:03:35.697Z,13.10
2023-03-26T17:14:03.481Z,9.90
2023-03-26T17:19:22.019Z,9.55
2023-03-26T17:24:33.671Z,9.52
2023-03-26T17:35:02.516Z,6.38
2023-03-26T17:40:12.615Z,5.85
2023-03-26T17:45:23.763Z,10.07
2023-03-26T17:50:44.824Z,7.45
2023-03-26T17:55:50.058Z,6.22
2023-03-26T18:00:57.179Z,9.70
2023-03-26T18:06:11.161Z,7.53
2023-03-26T18:11:24.637Z,6.60
2023-03-26T18:16:38.990Z,7.93
2023-03-26T18:21:41.402Z,7.18
2023-03-26T18:26:47.452Z,6.90
2023-03-26T18:31:53.428Z,8.05
2023-03-26T18:36:55.675Z,6.97
2023-03-26T18:41:58.165Z,6.65
2023-03-26T18:47:00.421Z,6.32
2023-03-26T18:52:02.691Z,8.05
2023-03-26T18:57:15.920Z,9.60
2023-03-26T19:02:19.285Z,6.22
2023-03-26T19:07:22.790Z,8.68
2023-03-26T19:12:29.722Z,7.35
2023-03-26T19:17:34.786Z,9.00
2023-03-26T19:22:37.244Z,7.68
2023-03-26T19:27:39.579Z,7.68
2023-03-26T19:32:52.489Z,7.10
2023-03-26T19:37:54.691Z,6.22
2023-03-26T19:42:59.872Z,8.48
2023-03-26T19:48:14.147Z,6.32
2023-03-26T19:53:18.007Z,6.60
2023-03-26T19:58:20.122Z,6.22
2023-03-26T20:03:24.765Z,7.93
2023-03-26T20:08:27.340Z,6.28
2023-03-26T20:13:31.466Z,11.15
2023-03-26T20:18:34.656Z,9.75
2023-03-26T20:23:37.297Z,9.32
2023-03-26T20:28:47.726Z,10.35
2023-03-26T20:33:52.076Z,7.70
2023-03-26T20:38:54.309Z,9.18
2023-03-26T20:43:57.220Z,9.35
2023-03-26T20:49:00.042Z,8.45
2023-03-26T20:54:02.497Z,7.15
2023-03-26T20:59:11.018Z,8.75
2023-03-26T21:04:14.309Z,7.90
2023-03-26T21:09:18.993Z,8.23
2023-03-26T21:14:32.756Z,8.23
2023-03-26T21:19:34.979Z,10.00
2023-03-26T21:24:52.072Z,8.40
2023-03-26T21:29:54.814Z,9.38
2023-03-26T21:34:59.321Z,16.85
2023-03-26T21:40:12.740Z,9.40
2023-03-26T21:45:15.101Z,8.02
2023-03-26T21:50:19.614Z,9.25
2023-03-26T21:55:23.300Z,8.27
2023-03-26T22:00:30.724Z,9.43
2023-03-26T22:05:45.128Z,9.98
2023-03-26T22:10:48.203Z,8.85
2023-03-26T22:15:50.429Z,8.20
2023-03-26T22:20:53.288Z,8.27
2023-03-26T22:25:55.496Z,10.10
2023-03-26T22:30:58.566Z,9.32
2023-03-26T22:36:01.571Z,9.85
2023-03-26T22:41:04.752Z,13.63
2023-03-26T22:46:07.128Z,9.32
2023-03-26T22:51:09.473Z,11.20
2023-03-26T22:56:13.876Z,13.88
2023-03-26T23:01:18.176Z,14.63
2023-03-26T23:06:21.507Z,11.82
2023-03-26T23:11:24.166Z,13.00
2023-03-26T23:16:26.784Z,17.33
2023-03-26T23:21:28.939Z,15.60
2023-03-26T23:26:43.904Z,12.40
2023-03-26T23:31:53.178Z,14.32
2023-03-26T23:36:55.351Z,11.60
2023-03-26T23:41:57.575Z,16.17
2023-03-26T23:47:00.938Z,9.63
2023-03-26T23:52:06.206Z,9.48
2023-03-26T23:57:09.159Z,11.40
